Time;durP1;ratioP1;P1;durP2;ratioP2;P2;SDS_P1;SDS_P2;PMS_P1;PMS_P2;Temp;Humidity;BMP_temperature;BMP_pressure;BME280_temperature;BME280_humidity;BME280_pressure;Samples;Min_cycle;Max_cycle;Signal;HPM_P1;HPM_P2
2021/01/14 00:02:01;;;;;;;5.47;1.13;;;0.50;92.80;;;;;;5072757;28;20154;-81
2021/01/14 00:04:27;;;;;;;9.30;1.20;;;0.50;93.10;;;;;;5079191;28;20064;-81
2021/01/14 00:06:54;;;;;;;14.02;1.55;;;0.40;93.30;;;;;;5115097;27;20053;-81
2021/01/14 00:09:19;;;;;;;7.18;0.90;;;0.30;93.50;;;;;;5073217;28;20074;-81
2021/01/14 00:11:46;;;;;;;5.00;1.10;;;0.30;93.70;;;;;;5078682;28;20697;-81
2021/01/14 00:14:11;;;;;;;9.18;1.58;;;0.20;93.80;;;;;;5084166;28;20048;-81
2021/01/14 00:16:37;;;;;;;8.40;2.35;;;0.20;93.90;;;;;;5081853;28;20098;-82
2021/01/14 00:19:05;;;;;;;11.00;1.55;;;0.10;93.90;;;;;;5085013;28;20132;-81
2021/01/14 00:21:31;;;;;;;8.63;1.35;;;0.20;93.90;;;;;;5071938;28;20461;-81
2021/01/14 00:23:57;;;;;;;4.78;0.80;;;0.20;93.90;;;;;;5084079;28;20060;-81
2021/01/14 00:26:22;;;;;;;7.15;1.20;;;0.20;94.20;;;;;;5071500;28;20048;-82
2021/01/14 00:28:48;;;;;;;9.50;1.00;;;0.20;94.20;;;;;;5111812;27;20056;-81
2021/01/14 00:31:14;;;;;;;7.53;0.73;;;0.20;94.30;;;;;;5109341;27;20077;-81
2021/01/14 00:33:41;;;;;;;5.60;1.48;;;0.10;94.30;;;;;;5072827;28;20040;-81
2021/01/14 00:36:07;;;;;;;7.20;1.17;;;0.10;94.40;;;;;;5113112;27;20091;-81
2021/01/14 00:38:33;;;;;;;9.75;1.70;;;0.10;94.60;;;;;;5080920;28;20060;-81
2021/01/14 00:40:58;;;;;;;8.90;1.52;;;0.20;94.80;;;;;;5103560;27;20049;-81
2021/01/14 00:43:24;;;;;;;9.35;1.33;;;0.20;94.90;;;;;;5078252;28;20101;-81
2021/01/14 00:45:50;;;;;;;6.97;0.98;;;0.30;95.10;;;;;;5071204;28;20052;-81
2021/01/14 00:48:16;;;;;;;7.88;1.20;;;0.20;95.30;;;;;;5077096;28;20040;-81
2021/01/14 00:50:41;;;;;;;8.50;1.15;;;0.30;95.10;;;;;;5111753;27;20040;-81
2021/01/14 00:53:07;;;;;;;9.40;1.40;;;0.40;95.10;;;;;;5080341;28;20047;-81
2021/01/14 00:55:33;;;;;;;11.52;1.00;;;0.50;95.10;;;;;;5085754;28;20029;-81
2021/01/14 00:57:59;;;;;;;8.18;1.27;;;0.50;95.20;;;;;;5071130;28;20036;-81
2021/01/14 01:00:25;;;;;;;14.20;2.08;;;0.50;95.10;;;;;;5077935;28;20032;-81
2021/01/14 01:02:52;;;;;;;10.75;1.70;;;0.50;95.30;;;;;;5071612;28;20051;-81
2021/01/14 01:05:19;;;;;;;8.98;1.05;;;0.40;95.20;;;;;;5084569;28;20101;-81
2021/01/14 01:07:50;;;;;;;8.63;1.40;;;0.40;95.30;;;;;;5099079;27;20656;-81
2021/01/14 01:10:16;;;;;;;7.22;1.25;;;0.40;95.40;;;;;;5068846;28;20036;-81
2021/01/14 01:12:42;;;;;;;7.10;1.00;;;0.30;95.50;;;;;;5109521;27;20074;-81
2021/01/14 01:15:08;;;;;;;10.50;1.52;;;0.30;95.60;;;;;;5084168;28;20359;-81
2021/01/14 01:17:34;;;;;;;5.53;1.10;;;0.30;95.70;;;;;;5062803;28;20106;-82
2021/01/14 01:20:00;;;;;;;11.32;1.63;;;0.40;95.70;;;;;;5107817;27;20055;-81
2021/01/14 01:22:26;;;;;;;8.63;1.23;;;0.40;96.00;;;;;;5072611;28;20059;-82
2021/01/14 01:24:52;;;;;;;9.23;1.30;;;0.30;95.70;;;;;;5073013;28;20086;-82
2021/01/14 01:27:18;;;;;;;9.15;1.80;;;0.20;96.10;;;;;;5072050;28;20686;-81
2021/01/14 01:29:44;;;;;;;7.38;1.00;;;0.20;95.90;;;;;;5068216;28;20131;-81
2021/01/14 01:32:10;;;;;;;11.15;1.45;;;0.10;95.80;;;;;;5069810;28;20731;-81
2021/01/14 01:34:36;;;;;;;9.40;1.30;;;0.10;95.90;;;;;;5077190;28;20064;-81
2021/01/14 01:37:02;;;;;;;10.57;1.45;;;0.10;95.90;;;;;;5081724;28;20083;-81
2021/01/14 01:39:27;;;;;;;9.00;1.73;;;0.10;96.00;;;;;;5112801;27;20039;-81
2021/01/14 01:41:59;;;;;;;7.85;1.73;;;0.10;96.00;;;;;;5101072;28;20039;-81
2021/01/14 01:44:25;;;;;;;8.23;1.38;;;0.10;96.00;;;;;;5078906;28;20047;-81
2021/01/14 01:47:08;;;;;;;7.80;1.42;;;0.10;96.10;;;;;;5081661;28;20028;-81
2021/01/14 01:49:37;;;;;;;6.88;1.42;;;0.10;96.20;;;;;;5084206;28;20062;-81
2021/01/14 01:52:06;;;;;;;8.45;2.05;;;0.10;96.20;;;;;;5077857;28;20036;-81
2021/01/14 01:54:33;;;;;;;5.80;1.45;;;0.00;96.20;;;;;;5072441;28;20056;-81
2021/01/14 01:57:01;;;;;;;13.88;1.80;;;-0.10;96.20;;;;;;5077674;28;20068;-81
2021/01/14 01:59:29;;;;;;;9.73;1.60;;;-0.10;96.30;;;;;;5092066;28;20129;-81
2021/01/14 02:01:55;;;;;;;8.38;1.73;;;-0.10;96.30;;;;;;5094155;28;20051;-81
2021/01/14 02:04:21;;;;;;;15.27;2.00;;;-0.20;96.30;;;;;;5096286;28;20036;-82
2021/01/14 02:06:58;;;;;;;10.23;1.48;;;-0.20;96.40;;;;;;5101115;28;20176;-81
2021/01/14 02:09:25;;;;;;;8.60;1.35;;;-0.30;96.40;;;;;;5077250;28;20071;-81
2021/01/14 02:12:03;;;;;;;11.18;1.77;;;-0.30;96.50;;;;;;5080430;28;20040;-81
2021/01/14 02:14:30;;;;;;;5.93;1.50;;;-0.30;96.50;;;;;;5091731;28;20032;-82
2021/01/14 02:16:56;;;;;;;10.32;1.88;;;-0.30;96.60;;;;;;5083468;28;20067;-81
2021/01/14 02:19:40;;;;;;;8.10;1.55;;;-0.30;96.60;;;;;;5088224;28;20040;-81
2021/01/14 02:22:15;;;;;;;9.80;2.67;;;-0.30;96.60;;;;;;5101668;28;20107;-81
2021/01/14 02:25:20;;;;;;;7.35;1.77;;;-0.40;96.60;;;;;;5076510;28;20044;-81
2021/01/14 02:27:46;;;;;;;15.25;2.13;;;-0.30;96.70;;;;;;5102083;28;20068;-81
2021/01/14 02:30:13;;;;;;;6.45;1.33;;;-0.40;96.70;;;;;;5072960;28;20462;-81
2021/01/14 02:32:42;;;;;;;10.02;2.13;;;-0.40;96.70;;;;;;5100935;28;20049;-81
2021/01/14 02:35:08;;;;;;;9.02;1.75;;;-0.40;96.70;;;;;;5052919;28;20064;-82
2021/01/14 02:37:36;;;;;;;5.68;1.45;;;-0.40;96.70;;;;;;5093570;28;20028;-81
2021/01/14 02:40:03;;;;;;;13.68;1.60;;;-0.40;96.70;;;;;;5080490;28;20090;-81
2021/01/14 02:42:28;;;;;;;4.75;2.03;;;-0.40;96.80;;;;;;5100316;28;20440;-81
2021/01/14 02:44:54;;;;;;;11.75;1.92;;;-0.40;96.80;;;;;;5076620;28;20062;-81
2021/01/14 02:47:22;;;;;;;4.10;1.17;;;-0.40;96.80;;;;;;5074816;28;20032;-81
2021/01/14 02:49:57;;;;;;;10.77;1.67;;;-0.40;96.80;;;;;;5103114;28;20464;-81
2021/01/14 02:52:25;;;;;;;9.68;1.08;;;-0.40;96.80;;;;;;5087370;28;20035;-81
2021/01/14 02:54:52;;;;;;;8.55;1.50;;;-0.40;96.70;;;;;;5096400;28;20124;-81
2021/01/14 02:57:18;;;;;;;6.70;1.33;;;-0.40;96.80;;;;;;5086599;28;20055;-81
2021/01/14 02:59:45;;;;;;;12.40;1.98;;;-0.40;96.80;;;;;;5084664;28;20040;-82
2021/01/14 03:02:12;;;;;;;11.48;1.92;;;-0.50;96.70;;;;;;5065705;28;20047;-81
2021/01/14 03:04:38;;;;;;;10.45;1.38;;;-0.50;96.80;;;;;;5099202;28;20051;-81
2021/01/14 03:07:04;;;;;;;10.68;1.35;;;-0.50;96.80;;;;;;5098176;28;20457;-81
2021/01/14 03:09:29;;;;;;;8.93;1.60;;;-0.60;96.70;;;;;;5087537;28;20035;-81
2021/01/14 03:11:55;;;;;;;12.55;1.30;;;-0.60;96.70;;;;;;5097830;28;20093;-82
2021/01/14 03:14:21;;;;;;;10.05;1.40;;;-0.60;96.80;;;;;;5112630;27;20048;-82
2021/01/14 03:16:47;;;;;;;10.30;2.15;;;-0.60;96.70;;;;;;5089954;28;20445;-82
2021/01/14 03:19:12;;;;;;;9.40;1.25;;;-0.70;96.70;;;;;;5098311;28;20044;-82
2021/01/14 03:21:38;;;;;;;12.93;1.77;;;-0.70;96.80;;;;;;5106401;27;20126;-82
2021/01/14 03:24:05;;;;;;;9.90;1.75;;;-0.70;96.80;;;;;;5089745;28;20067;-82
2021/01/14 03:26:35;;;;;;;10.10;1.42;;;-0.70;96.80;;;;;;5078987;28;20064;-82
2021/01/14 03:29:00;;;;;;;7.78;1.38;;;-0.70;96.80;;;;;;5097505;28;20047;-82
2021/01/14 03:31:26;;;;;;;9.60;2.15;;;-0.70;96.80;;;;;;5106974;28;20051;-82
2021/01/14 03:33:52;;;;;;;10.10;1.92;;;-0.80;96.80;;;;;;5099579;27;20088;-82
2021/01/14 03:36:19;;;;;;;9.40;1.98;;;-0.80;96.80;;;;;;5129666;27;20036;-82
2021/01/14 03:38:46;;;;;;;12.25;1.58;;;-0.80;96.80;;;;;;5092661;28;20043;-82
2021/01/14 03:41:16;;;;;;;8.38;1.85;;;-0.90;96.80;;;;;;5097733;28;20067;-82
2021/01/14 03:43:43;;;;;;;8.40;1.48;;;-0.90;96.80;;;;;;5095520;28;20035;-82
2021/01/14 03:46:13;;;;;;;6.15;1.38;;;-1.00;96.80;;;;;;5098363;28;20055;-82
2021/01/14 03:48:41;;;;;;;8.57;1.73;;;-1.00;96.80;;;;;;5083160;28;20479;-82
2021/01/14 03:51:18;;;;;;;8.35;1.33;;;-1.10;96.80;;;;;;5081987;28;20044;-82
2021/01/14 03:53:45;;;;;;;10.85;1.48;;;-1.10;96.90;;;;;;5072717;28;20060;-82
2021/01/14 03:56:11;;;;;;;9.48;1.42;;;-1.10;96.90;;;;;;5079800;28;20032;-82
2021/01/14 03:58:37;;;;;;;9.25;1.65;;;-1.10;96.90;;;;;;5071625;28;20067;-83
2021/01/14 04:01:04;;;;;;;11.73;1.90;;;-1.10;96.90;;;;;;5078421;28;20032;-82
2021/01/14 04:03:30;;;;;;;10.30;1.73;;;-1.10;96.90;;;;;;5072957;28;20107;-82
2021/01/14 04:05:55;;;;;;;8.75;1.30;;;-1.20;96.90;;;;;;5099513;28;20407;-81
2021/01/14 04:08:21;;;;;;;17.45;1.95;;;-1.10;97.00;;;;;;5103188;28;20119;-82
2021/01/14 04:10:48;;;;;;;9.57;1.85;;;-1.20;96.90;;;;;;5099288;28;20633;-82
2021/01/14 04:13:14;;;;;;;9.20;1.88;;;-1.30;96.80;;;;;;5097062;28;20056;-82
2021/01/14 04:15:40;;;;;;;8.73;1.70;;;-1.30;96.80;;;;;;5069350;28;20078;-82
2021/01/14 04:18:07;;;;;;;9.77;2.08;;;-1.30;96.90;;;;;;5100481;28;20044;-82
2021/01/14 04:20:33;;;;;;;10.70;1.55;;;-1.40;96.90;;;;;;5105968;28;20036;-82
2021/01/14 04:22:59;;;;;;;9.75;1.17;;;-1.40;96.90;;;;;;5098624;28;20059;-82
2021/01/14 04:25:30;;;;;;;7.68;1.77;;;-1.40;96.90;;;;;;5090288;28;20036;-83
2021/01/14 04:28:00;;;;;;;11.15;1.80;;;-1.50;97.20;;;;;;5076810;28;20415;-83
2021/01/14 04:30:27;;;;;;;10.77;1.63;;;-1.50;96.90;;;;;;5091069;28;20258;-82
2021/01/14 04:33:10;;;;;;;14.52;2.13;;;-1.60;96.90;;;;;;5071518;28;20115;-83
2021/01/14 04:35:43;;;;;;;14.00;1.85;;;-1.60;96.90;;;;;;5089551;28;20041;-82
2021/01/14 04:38:09;;;;;;;12.07;2.03;;;-1.60;97.00;;;;;;5082848;28;20509;-82
2021/01/14 04:40:35;;;;;;;8.32;1.60;;;-1.70;97.00;;;;;;5074530;28;20062;-82
2021/01/14 04:43:01;;;;;;;7.10;1.65;;;-1.70;97.00;;;;;;5085185;28;20039;-82
2021/01/14 04:45:26;;;;;;;13.00;2.47;;;-1.70;97.00;;;;;;5093735;28;20083;-82
2021/01/14 04:47:53;;;;;;;6.82;1.80;;;-1.80;97.00;;;;;;5083607;28;20059;-82
2021/01/14 04:50:19;;;;;;;14.85;2.20;;;-1.70;97.10;;;;;;5098090;28;20054;-82
2021/01/14 04:52:47;;;;;;;12.50;2.45;;;-1.70;97.20;;;;;;5084138;28;20044;-81
2021/01/14 04:55:14;;;;;;;11.95;2.33;;;-1.60;97.30;;;;;;5077035;28;20035;-82
2021/01/14 04:57:44;;;;;;;12.10;2.75;;;-1.60;97.30;;;;;;5090298;28;20058;-81
2021/01/14 05:00:13;;;;;;;7.22;2.00;;;-1.50;97.30;;;;;;5094059;28;20060;-82
2021/01/14 05:03:19;;;;;;;12.10;2.08;;;-1.50;97.30;;;;;;5071747;28;20126;-82
2021/01/14 05:05:45;;;;;;;;;;;-1.60;97.20;;;;;;5069483;28;20122;-82
2021/01/14 05:08:14;;;;;;;11.88;2.70;;;-1.60;97.10;;;;;;5082735;28;19939;-82
2021/01/14 05:10:41;;;;;;;15.85;3.17;;;-1.70;97.20;;;;;;5115637;27;20039;-82
2021/01/14 05:13:09;;;;;;;9.23;3.10;;;-1.60;97.20;;;;;;5090136;28;20044;-82
2021/01/14 05:15:39;;;;;;;7.38;2.10;;;-1.60;97.30;;;;;;5075407;28;20036;-82
2021/01/14 05:18:06;;;;;;;9.85;2.10;;;-1.60;97.30;;;;;;5076158;28;20066;-82
2021/01/14 05:20:32;;;;;;;8.38;1.95;;;-1.60;97.30;;;;;;5102586;28;20036;-82
2021/01/14 05:23:04;;;;;;;8.45;1.95;;;-1.50;97.30;;;;;;5084250;28;20040;-82
2021/01/14 05:25:32;;;;;;;8.50;1.60;;;-1.50;97.20;;;;;;5079849;28;20060;-82
2021/01/14 05:28:16;;;;;;;7.97;1.45;;;-1.50;97.20;;;;;;5093278;28;20050;-82
2021/01/14 05:30:43;;;;;;;11.00;2.20;;;-1.50;97.20;;;;;;5100090;28;20488;-82
2021/01/14 05:33:14;;;;;;;6.97;2.33;;;-1.50;97.20;;;;;;5087671;28;20040;-82
2021/01/14 05:35:47;;;;;;;9.30;2.30;;;-1.50;97.20;;;;;;5077770;28;20051;-82
2021/01/14 05:38:27;;;;;;;8.00;2.35;;;-1.50;97.20;;;;;;5092139;28;20039;-81
2021/01/14 05:41:11;;;;;;;8.20;1.80;;;-1.40;97.20;;;;;;5069700;28;20062;-82
2021/01/14 05:43:57;;;;;;;15.05;2.58;;;-1.40;97.20;;;;;;5090667;28;20428;-82
2021/01/14 05:46:28;;;;;;;12.93;2.55;;;-1.40;97.10;;;;;;5101211;28;20028;-82
2021/01/14 05:48:55;;;;;;;8.70;2.05;;;-1.50;97.10;;;;;;5057805;28;20072;-82
2021/01/14 05:51:32;;;;;;;12.60;2.72;;;-1.50;97.10;;;;;;5070488;28;20028;-81
2021/01/14 05:54:02;;;;;;;10.93;2.30;;;-1.50;97.10;;;;;;5088846;28;20040;-81
2021/01/14 05:56:50;;;;;;;8.43;2.30;;;-1.50;97.10;;;;;;5098032;28;20230;-81
2021/01/14 05:59:19;;;;;;;7.78;1.90;;;-1.50;97.10;;;;;;5089583;28;20032;-81
2021/01/14 06:01:52;;;;;;;7.70;1.88;;;-1.60;97.00;;;;;;5097467;28;20031;-82
2021/01/14 06:04:29;;;;;;;5.95;1.70;;;-1.60;97.00;;;;;;5073895;28;20100;-82
2021/01/14 06:07:02;;;;;;;9.23;2.05;;;-1.70;96.90;;;;;;5095958;28;20048;-81
2021/01/14 06:09:28;;;;;;;9.90;2.05;;;-1.80;96.90;;;;;;5075772;28;20052;-82
2021/01/14 06:12:08;;;;;;;8.20;1.80;;;-1.90;96.90;;;;;;5093839;28;20032;-81
2021/01/14 06:14:34;;;;;;;5.63;1.63;;;-2.00;96.90;;;;;;5095962;28;20036;-81
2021/01/14 06:17:02;;;;;;;9.07;2.33;;;-2.00;96.90;;;;;;5080527;28;20144;-82
2021/01/14 06:19:29;;;;;;;10.00;2.40;;;-2.10;96.90;;;;;;5091069;28;20491;-82
2021/01/14 06:21:55;;;;;;;11.90;2.25;;;-2.10;96.90;;;;;;5101770;28;20394;-82
2021/01/14 06:24:37;;;;;;;9.32;1.88;;;-2.10;97.00;;;;;;5077140;28;20048;-82
2021/01/14 06:27:07;;;;;;;12.57;1.92;;;-2.10;97.00;;;;;;5083944;28;20040;-82
2021/01/14 06:29:34;;;;;;;9.77;1.95;;;-2.20;96.90;;;;;;5064483;28;20075;-81
2021/01/14 06:32:14;;;;;;;8.77;1.77;;;-2.20;96.90;;;;;;5092261;28;20035;-82
2021/01/14 06:34:51;;;;;;;7.72;2.00;;;-2.30;96.80;;;;;;5096790;28;20063;-82
2021/01/14 06:37:22;;;;;;;9.20;1.83;;;-2.40;96.80;;;;;;5083223;28;20066;-82
2021/01/14 06:39:59;;;;;;;12.25;2.15;;;-2.40;97.20;;;;;;5076742;28;20044;-81
2021/01/14 06:42:29;;;;;;;11.25;2.20;;;-2.40;96.90;;;;;;5096071;28;20412;-82
2021/01/14 06:44:55;;;;;;;8.52;2.55;;;-2.50;96.90;;;;;;5078709;28;20036;-82
2021/01/14 06:47:45;;;;;;;11.68;2.40;;;-2.50;96.90;;;;;;5071943;28;20116;-82
2021/01/14 06:50:20;;;;;;;11.30;2.58;;;-2.50;96.90;;;;;;5083514;28;20051;-82
2021/01/14 06:52:49;;;;;;;11.05;2.45;;;-2.60;96.90;;;;;;5100247;28;20040;-81
2021/01/14 06:55:15;;;;;;;8.13;1.95;;;-2.60;96.80;;;;;;5054376;28;20052;-81
2021/01/14 06:57:56;;;;;;;11.13;2.67;;;-2.60;96.80;;;;;;5066389;28;20083;-81
2021/01/14 07:00:22;;;;;;;9.60;2.22;;;-2.60;96.80;;;;;;5092783;28;20067;-81
2021/01/14 07:03:10;;;;;;;10.25;2.17;;;-2.70;96.90;;;;;;5083124;28;20056;-81
2021/01/14 07:05:38;;;;;;;12.93;2.45;;;-2.70;96.90;;;;;;5092939;28;20036;-81
2021/01/14 07:08:38;;;;;;;7.35;1.85;;;-2.70;96.90;;;;;;5085190;28;20028;-81
2021/01/14 07:11:19;;;;;;;5.93;2.08;;;-2.80;96.80;;;;;;5078078;28;20039;-81
2021/01/14 07:13:50;;;;;;;15.55;4.68;;;-2.80;96.90;;;;;;5098597;28;20043;-81
2021/01/14 07:16:24;;;;;;;10.45;5.22;;;-2.80;96.90;;;;;;5074361;28;20108;-81
2021/01/14 07:18:51;;;;;;;13.85;4.40;;;-2.80;96.90;;;;;;5089795;28;20029;-81
2021/01/14 07:21:37;;;;;;;16.05;3.80;;;-2.80;96.90;;;;;;5095992;28;20028;-82
2021/01/14 07:24:09;;;;;;;10.25;3.20;;;-2.80;96.90;;;;;;5084322;28;20047;-81
2021/01/14 07:26:39;;;;;;;12.40;3.20;;;-2.80;97.20;;;;;;5092241;28;20036;-81
2021/01/14 07:29:06;;;;;;;7.72;3.10;;;-2.90;96.90;;;;;;5082657;28;20036;-81
2021/01/14 07:31:32;;;;;;;14.07;4.40;;;-2.90;96.90;;;;;;5068946;28;20056;-82
2021/01/14 07:34:31;;;;;;;15.57;4.22;;;-2.90;96.80;;;;;;5076998;28;21235;-81
2021/01/14 07:36:57;;;;;;;10.30;3.78;;;-2.90;96.80;;;;;;5092089;28;20039;-80
2021/01/14 07:39:52;;;;;;;14.20;4.07;;;-3.00;96.80;;;;;;5099238;28;20040;-80
2021/01/14 07:42:47;;;;;;;10.10;3.40;;;-3.00;96.80;;;;;;5093442;28;20536;-80
2021/01/14 07:45:16;;;;;;;14.75;3.20;;;-3.00;96.90;;;;;;5094723;28;20514;-79
2021/01/14 07:47:42;;;;;;;12.45;4.20;;;-3.00;96.90;;;;;;5094475;28;20052;-80
2021/01/14 07:50:24;;;;;;;10.80;2.95;;;-3.00;96.90;;;;;;5066614;28;20085;-80
2021/01/14 07:52:51;;;;;;;13.63;3.92;;;-3.00;96.90;;;;;;5099158;27;20052;-80
2021/01/14 07:55:36;;;;;;;14.23;3.30;;;-3.00;96.90;;;;;;5100654;28;20039;-79
2021/01/14 07:58:23;;;;;;;15.73;4.10;;;-3.00;96.90;;;;;;5081726;28;20488;-79
2021/01/14 08:01:01;;;;;;;10.32;4.00;;;-3.00;96.90;;;;;;5095963;28;20051;-80
2021/01/14 08:03:34;;;;;;;14.20;4.75;;;-3.00;97.00;;;;;;5073758;28;20560;-79
2021/01/14 08:06:21;;;;;;;9.50;3.97;;;-3.00;97.00;;;;;;5083761;28;20035;-80
2021/01/14 08:09:11;;;;;;;15.93;5.15;;;-2.90;97.20;;;;;;5081519;28;20040;-80
2021/01/14 08:11:45;;;;;;;12.50;5.20;;;-2.90;97.20;;;;;;5096067;28;20067;-79
2021/01/14 08:14:16;;;;;;;;;;;-2.90;97.20;;;;;;5074828;28;20052;-79
2021/01/14 08:16:51;;;;;;;16.02;5.95;;;-2.90;97.20;;;;;;5104261;27;19951;-81
2021/01/14 08:19:31;;;;;;;16.20;5.18;;;-2.80;97.20;;;;;;5096639;28;20477;-81
2021/01/14 08:22:01;;;;;;;12.18;5.57;;;-2.80;97.30;;;;;;5099750;28;20044;-81
2021/01/14 08:24:39;;;;;;;15.98;6.88;;;-2.80;97.30;;;;;;5095581;28;20069;-80
2021/01/14 08:27:12;;;;;;;14.23;5.18;;;-2.70;97.20;;;;;;5093744;28;20367;-79
2021/01/14 08:29:43;;;;;;;19.17;6.32;;;-2.70;97.30;;;;;;5074213;28;20044;-79
2021/01/14 08:32:46;;;;;;;15.65;6.97;;;-2.60;97.40;;;;;;5123037;27;20113;-80
2021/01/14 08:35:15;;;;;;;15.93;6.30;;;-2.60;97.40;;;;;;5072271;28;20040;-80
2021/01/14 08:37:45;;;;;;;15.10;6.50;;;-2.50;97.30;;;;;;5098172;28;20079;-79
2021/01/14 08:40:12;;;;;;;13.30;6.93;;;-2.40;97.30;;;;;;5088357;28;20491;-80
2021/01/14 08:42:43;;;;;;;22.63;7.50;;;-2.40;97.30;;;;;;5081065;28;20092;-80
2021/01/14 08:45:20;;;;;;;13.50;6.07;;;-2.40;97.20;;;;;;5083730;28;20127;-80
2021/01/14 08:48:02;;;;;;;16.42;6.03;;;-2.30;97.30;;;;;;5116359;27;20111;-79
2021/01/14 08:50:40;;;;;;;14.43;6.25;;;-2.30;97.30;;;;;;5089337;28;20032;-79
2021/01/14 08:53:18;;;;;;;14.23;6.20;;;-2.20;97.30;;;;;;5095880;28;20045;-80
2021/01/14 08:55:57;;;;;;;14.05;6.55;;;-2.20;97.20;;;;;;5089721;27;20054;-79
2021/01/14 08:58:58;;;;;;;20.17;9.55;;;-2.20;97.20;;;;;;5093108;28;20031;-79
2021/01/14 09:01:25;;;;;;;15.38;8.27;;;-2.10;97.30;;;;;;5118025;27;20531;-79
2021/01/14 09:03:54;;;;;;;14.45;6.22;;;-2.10;97.30;;;;;;5098885;28;20464;-80
2021/01/14 09:06:40;;;;;;;15.93;7.43;;;-2.00;97.30;;;;;;5086553;28;20044;-81
2021/01/14 09:09:09;;;;;;;17.65;7.05;;;-2.00;97.20;;;;;;5086965;28;20246;-81
2021/01/14 09:11:36;;;;;;;13.60;7.50;;;-1.90;97.30;;;;;;5095408;28;20054;-80
2021/01/14 09:14:10;;;;;;;24.45;7.85;;;-1.70;97.40;;;;;;5101653;28;20054;-81
2021/01/14 09:16:37;;;;;;;15.05;6.35;;;-1.60;97.40;;;;;;5089170;28;20113;-79
2021/01/14 09:19:19;;;;;;;16.23;6.55;;;-1.50;97.40;;;;;;5097267;28;20039;-81
2021/01/14 09:21:46;;;;;;;16.02;6.65;;;-1.40;97.40;;;;;;5085294;28;20044;-82
2021/01/14 09:24:14;;;;;;;16.63;6.47;;;-1.20;97.30;;;;;;5104848;28;20127;-82
2021/01/14 09:26:43;;;;;;;10.88;5.40;;;-1.20;97.20;;;;;;5121586;27;20033;-81
2021/01/14 09:29:12;;;;;;;15.43;5.88;;;-1.10;97.20;;;;;;5098247;28;20057;-81
2021/01/14 09:31:39;;;;;;;15.35;6.00;;;-1.00;97.10;;;;;;5093217;28;20416;-81
2021/01/14 09:34:05;;;;;;;16.00;6.95;;;-0.90;97.00;;;;;;5131554;27;20488;-81
2021/01/14 09:36:33;;;;;;;17.92;6.47;;;-0.80;96.90;;;;;;5125777;27;20059;-80
2021/01/14 09:39:14;;;;;;;12.93;6.20;;;-0.70;96.90;;;;;;5100063;28;20059;-80
2021/01/14 09:41:40;;;;;;;14.00;6.80;;;-0.60;96.80;;;;;;5123213;27;20105;-81
2021/01/14 09:44:08;;;;;;;19.48;7.10;;;-0.50;96.70;;;;;;5090684;28;20481;-80
2021/01/14 09:46:39;;;;;;;15.25;6.47;;;-0.40;96.50;;;;;;5127715;27;20052;-80
2021/01/14 09:49:15;;;;;;;15.18;6.50;;;-0.30;96.30;;;;;;5094219;28;20058;-81
2021/01/14 09:51:45;;;;;;;12.55;6.55;;;-0.20;96.20;;;;;;5092934;28;20105;-80
2021/01/14 09:54:13;;;;;;;10.60;6.03;;;-0.20;96.10;;;;;;5088414;28;20063;-82
2021/01/14 09:56:48;;;;;;;13.55;6.55;;;-0.10;96.00;;;;;;5101607;28;20048;-80
2021/01/14 09:59:25;;;;;;;15.55;6.85;;;0.00;95.80;;;;;;5082340;28;20768;-80
2021/01/14 10:01:57;;;;;;;11.27;6.43;;;0.10;95.60;;;;;;5091414;28;20066;-79
2021/01/14 10:04:26;;;;;;;14.35;7.20;;;0.10;95.70;;;;;;5086661;28;20040;-81
2021/01/14 10:07:15;;;;;;;14.63;6.65;;;0.20;95.80;;;;;;5083426;28;20139;-81
2021/01/14 10:09:41;;;;;;;11.65;6.75;;;0.20;95.70;;;;;;5091625;28;20384;-80
2021/01/14 10:12:09;;;;;;;19.52;6.82;;;0.30;95.70;;;;;;5119175;27;20048;-81
2021/01/14 10:14:35;;;;;;;15.02;6.55;;;0.30;95.60;;;;;;5089516;28;20068;-80
2021/01/14 10:17:34;;;;;;;14.95;6.70;;;0.40;95.60;;;;;;5115090;28;20360;-80
2021/01/14 10:20:00;;;;;;;15.88;7.18;;;0.50;95.50;;;;;;5098846;28;20048;-79
2021/01/14 10:22:27;;;;;;;13.82;6.75;;;0.50;95.30;;;;;;5097167;28;20051;-79
2021/01/14 10:25:08;;;;;;;17.98;7.47;;;0.60;95.30;;;;;;5080495;28;20087;-79
2021/01/14 10:27:35;;;;;;;12.27;6.78;;;0.60;95.30;;;;;;5096656;28;20032;-78
2021/01/14 10:30:18;;;;;;;14.55;6.65;;;0.70;95.30;;;;;;5092155;28;20062;-80
2021/01/14 10:32:44;;;;;;;13.00;6.97;;;0.70;95.20;;;;;;5088689;28;20036;-80
2021/01/14 10:35:22;;;;;;;12.18;6.32;;;0.70;95.20;;;;;;5117143;27;20121;-81
2021/01/14 10:37:48;;;;;;;14.80;7.35;;;0.80;95.00;;;;;;5094932;28;20120;-80
2021/01/14 10:40:20;;;;;;;14.48;6.97;;;0.90;95.10;;;;;;5093066;28;20048;-81
2021/01/14 10:42:49;;;;;;;19.88;6.95;;;0.90;95.10;;;;;;5099729;28;20063;-81
2021/01/14 10:45:28;;;;;;;15.80;7.07;;;1.00;95.10;;;;;;5062610;28;20138;-81
2021/01/14 10:48:12;;;;;;;19.15;6.85;;;1.00;94.70;;;;;;5089194;28;20054;-80
2021/01/14 10:50:54;;;;;;;15.17;7.30;;;1.00;94.60;;;;;;5088839;28;20040;-82
2021/01/14 10:53:30;;;;;;;16.45;6.68;;;1.10;94.50;;;;;;5087841;28;20317;-81
2021/01/14 10:56:08;;;;;;;13.27;7.00;;;1.10;94.30;;;;;;5092792;28;20063;-81
2021/01/14 10:58:34;;;;;;;11.98;6.93;;;1.20;94.60;;;;;;5105003;28;20039;-82
2021/01/14 11:01:00;;;;;;;12.40;7.40;;;1.20;94.40;;;;;;5084135;28;20052;-83
2021/01/14 11:03:28;;;;;;;13.85;7.10;;;1.20;94.40;;;;;;5100280;28;20086;-82
2021/01/14 11:06:01;;;;;;;15.23;7.75;;;1.30;94.50;;;;;;5095281;28;20401;-82
2021/01/14 11:08:37;;;;;;;12.15;6.90;;;1.30;94.60;;;;;;5102621;28;20101;-83
2021/01/14 11:11:06;;;;;;;15.45;7.75;;;1.30;94.30;;;;;;5092379;28;20086;-82
2021/01/14 11:13:49;;;;;;;13.45;6.75;;;1.30;94.30;;;;;;5095435;28;20165;-80
2021/01/14 11:16:18;;;;;;;13.48;5.78;;;1.30;94.10;;;;;;5090646;28;20079;-81
2021/01/14 11:18:46;;;;;;;14.85;7.72;;;1.30;93.70;;;;;;5132681;27;20055;-81
2021/01/14 11:21:14;;;;;;;13.63;7.05;;;1.30;94.20;;;;;;5130776;27;20672;-82
2021/01/14 11:23:40;;;;;;;16.05;7.63;;;1.30;94.30;;;;;;5104766;28;20074;-81
2021/01/14 11:26:07;;;;;;;12.95;7.15;;;1.30;94.10;;;;;;5099733;28;20075;-81
2021/01/14 11:28:38;;;;;;;11.40;7.68;;;1.40;94.50;;;;;;5095520;28;20392;-82
2021/01/14 11:31:05;;;;;;;14.48;7.70;;;1.30;94.20;;;;;;5105466;28;20464;-83
2021/01/14 11:33:31;;;;;;;14.45;7.65;;;1.40;94.30;;;;;;5100885;28;20032;-81
2021/01/14 11:35:57;;;;;;;14.32;7.20;;;1.40;93.90;;;;;;5099592;28;20147;-82
2021/01/14 11:38:23;;;;;;;11.52;6.75;;;1.40;93.90;;;;;;5092604;28;20639;-82
2021/01/14 11:40:52;;;;;;;13.48;7.93;;;1.40;94.10;;;;;;5106003;28;20051;-84
2021/01/14 11:43:20;;;;;;;16.80;7.78;;;1.40;94.10;;;;;;5092589;28;20063;-85
2021/01/14 11:45:46;;;;;;;13.35;7.82;;;1.40;94.00;;;;;;5128961;27;20047;-84
2021/01/14 11:48:12;;;;;;;15.57;8.00;;;1.40;94.20;;;;;;5125871;27;20047;-83
2021/01/14 11:50:38;;;;;;;12.40;8.50;;;1.40;94.10;;;;;;5098525;28;20106;-83
2021/01/14 11:53:04;;;;;;;14.90;7.55;;;1.50;94.20;;;;;;5092379;28;20044;-82
2021/01/14 11:55:29;;;;;;;14.70;9.05;;;1.50;94.10;;;;;;5102402;28;20036;-82
2021/01/14 11:57:55;;;;;;;12.65;7.57;;;1.50;94.10;;;;;;5085397;28;20043;-82
2021/01/14 12:00:21;;;;;;;13.70;7.85;;;1.60;94.50;;;;;;5099052;28;20111;-82
2021/01/14 12:02:47;;;;;;;10.43;6.75;;;1.60;94.20;;;;;;5076304;28;20055;-82
2021/01/14 12:05:13;;;;;;;11.52;7.55;;;1.70;93.30;;;;;;5064536;28;20052;-84
2021/01/14 12:07:39;;;;;;;13.52;7.50;;;1.60;93.30;;;;;;5071119;28;20052;-81
2021/01/14 12:10:06;;;;;;;8.77;6.53;;;1.60;93.70;;;;;;5079817;28;20469;-83
2021/01/14 12:12:32;;;;;;;11.35;7.22;;;1.60;93.40;;;;;;5099977;28;20108;-82
2021/01/14 12:14:59;;;;;;;14.48;7.45;;;1.60;93.20;;;;;;5078974;28;20352;-82
2021/01/14 12:17:25;;;;;;;14.68;7.13;;;1.60;93.80;;;;;;5079733;28;20076;-83
2021/01/14 12:19:51;;;;;;;15.48;7.32;;;1.60;93.80;;;;;;5087881;28;20047;-81
2021/01/14 12:22:26;;;;;;;13.07;7.68;;;1.60;93.70;;;;;;5097471;28;20077;-86
2021/01/14 12:24:52;;;;;;;15.18;7.90;;;1.60;93.50;;;;;;5121821;27;20064;-81
2021/01/14 12:27:18;;;;;;;19.23;12.90;;;1.70;93.50;;;;;;5087857;28;20087;-81
2021/01/14 12:29:44;;;;;;;12.88;8.50;;;1.70;94.00;;;;;;5097132;28;20068;-81
2021/01/14 12:32:10;;;;;;;12.38;8.05;;;1.70;93.80;;;;;;5102668;28;20056;-82
2021/01/14 12:34:36;;;;;;;13.88;8.07;;;1.70;93.70;;;;;;5092650;28;20050;-82
2021/01/14 12:37:02;;;;;;;11.38;7.85;;;1.70;93.70;;;;;;5103885;28;20421;-85
2021/01/14 12:39:27;;;;;;;15.10;8.02;;;1.80;93.60;;;;;;5081950;28;20062;-81
2021/01/14 12:41:53;;;;;;;11.70;7.80;;;1.80;93.70;;;;;;5089130;28;20125;-82
2021/01/14 12:44:20;;;;;;;12.35;8.05;;;1.80;93.60;;;;;;5100242;28;20698;-82
2021/01/14 12:46:47;;;;;;;12.75;7.10;;;1.70;93.70;;;;;;5083091;28;20059;-82
2021/01/14 12:49:18;;;;;;;13.57;7.10;;;1.70;94.00;;;;;;5100541;28;20040;-80
2021/01/14 12:51:44;;;;;;;12.48;7.07;;;1.70;93.70;;;;;;5088610;28;20042;-80
2021/01/14 12:54:11;;;;;;;11.60;6.60;;;1.70;93.40;;;;;;5097052;28;20032;-80
2021/01/14 12:56:38;;;;;;;11.75;7.75;;;1.70;93.60;;;;;;5090807;28;20055;-80
2021/01/14 12:59:05;;;;;;;12.98;8.02;;;1.70;93.70;;;;;;5100106;28;20150;-85
2021/01/14 13:01:33;;;;;;;12.05;8.55;;;1.70;93.60;;;;;;5055284;28;20131;-84
2021/01/14 13:04:02;;;;;;;12.23;7.25;;;1.70;93.70;;;;;;5096672;28;20541;-84